Weather at Bergby Airstrip

Public forecast

Using degrees Celsius for public forecast. Weather courtesy of forecast.io.

Closest aviation weather report (METAR) to Bergby Airstrip

Report is more than 6 hours old.

Closest report is Stockholm-Arlanda Airport, 22.4 nm (41.4 km) WSW. Retrieved 2022/09/17 18:50 UTC (13 days ago):

ESSA 171850Z 30005KT CAVOK 09/09 Q0996 TEMPO SHRA BKN025CB

Closest aviation forecast (TAF) to Bergby Airstrip

Forecast is more than 12 hours old.

Closest forecast is Stockholm-Arlanda Airport, 22.4 nm (41.4 km) WSW. Retrieved 2022/09/17 18:00 UTC (13 days ago):

TAF ESSA 171730Z 1718/1818 28007KT 9999 BKN030 PROB40 1718/1721 SHRA BKN025CB PROB40 1721/1806 4000 BR